createdAt,value
2018-12-15T00:00:48.798Z,0.00
2018-12-15T00:01:48.817Z,0.00
2018-12-15T00:02:48.781Z,0.00
2018-12-15T00:03:48.772Z,0.00
2018-12-15T00:04:48.770Z,0.00
2018-12-15T00:05:48.753Z,0.00
2018-12-15T00:06:48.781Z,0.00
2018-12-15T00:07:48.740Z,0.00
2018-12-15T00:08:48.735Z,0.00
2018-12-15T00:09:48.727Z,0.00
2018-12-15T00:10:48.723Z,0.00
2018-12-15T00:11:49.626Z,0.00
2018-12-15T00:12:48.707Z,0.00
2018-12-15T00:13:48.699Z,0.00
2018-12-15T00:14:48.691Z,0.00
2018-12-15T00:15:48.687Z,0.00
2018-12-15T00:16:48.703Z,0.00
2018-12-15T00:17:48.673Z,0.00
2018-12-15T00:18:48.663Z,0.00
2018-12-15T00:19:48.655Z,0.00
2018-12-15T00:20:48.643Z,0.00
2018-12-15T00:21:48.671Z,0.00
2018-12-15T00:22:48.631Z,0.00
2018-12-15T00:23:48.626Z,0.00
2018-12-15T00:24:48.618Z,0.00
2018-12-15T00:25:48.642Z,0.00
2018-12-15T00:26:48.602Z,0.00
2018-12-15T00:27:48.585Z,0.00
2018-12-15T00:28:48.588Z,0.00
2018-12-15T00:29:48.582Z,0.00
2018-12-15T00:30:48.605Z,0.00
2018-12-15T00:31:48.566Z,0.00
2018-12-15T00:32:48.559Z,0.00
2018-12-15T00:33:48.546Z,0.00
2018-12-15T00:34:48.541Z,0.00
2018-12-15T00:35:48.575Z,0.00
2018-12-15T00:36:48.538Z,0.00
2018-12-15T00:37:48.522Z,0.00
2018-12-15T00:38:48.512Z,0.00
2018-12-15T00:39:48.505Z,0.00
2018-12-15T00:40:48.531Z,0.00
2018-12-15T00:41:48.490Z,0.00
2018-12-15T00:42:48.484Z,0.00
2018-12-15T00:43:48.473Z,0.00
2018-12-15T00:44:48.469Z,0.00
2018-12-15T00:45:48.491Z,0.00
2018-12-15T00:46:48.448Z,0.00
2018-12-15T00:47:48.440Z,0.00
2018-12-15T00:48:48.439Z,0.00
2018-12-15T00:49:48.432Z,0.00
2018-12-15T00:50:48.453Z,0.00
2018-12-15T00:51:48.416Z,0.00
2018-12-15T00:52:48.407Z,0.00
2018-12-15T00:53:48.400Z,0.00
2018-12-15T00:54:48.393Z,0.00
2018-12-15T00:55:48.416Z,0.00
2018-12-15T00:56:48.380Z,0.00
2018-12-15T00:57:48.371Z,0.00
2018-12-15T00:58:48.363Z,0.00
2018-12-15T00:59:48.354Z,0.00
2018-12-15T01:00:48.375Z,0.00
2018-12-15T01:01:48.339Z,0.00
2018-12-15T01:02:48.331Z,0.00
2018-12-15T01:03:48.326Z,0.00
2018-12-15T01:04:48.318Z,0.00
2018-12-15T01:05:48.340Z,0.00
2018-12-15T01:06:48.302Z,0.00
2018-12-15T01:07:48.480Z,0.00
2018-12-15T01:08:48.291Z,0.00
2018-12-15T01:09:48.279Z,0.00
2018-12-15T01:10:48.304Z,0.00
2018-12-15T01:11:48.266Z,0.00
2018-12-15T01:12:48.254Z,0.00
2018-12-15T01:13:48.250Z,0.00
2018-12-15T01:14:48.244Z,0.00
2018-12-15T01:15:48.267Z,0.00
2018-12-15T01:16:48.234Z,0.00
2018-12-15T01:17:48.225Z,0.00
2018-12-15T01:18:48.218Z,0.00
2018-12-15T01:19:48.238Z,0.00
2018-12-15T01:20:48.199Z,0.00
2018-12-15T01:21:48.197Z,0.00
2018-12-15T01:22:48.186Z,0.00
2018-12-15T01:23:48.180Z,0.00
2018-12-15T01:24:48.196Z,0.00
2018-12-15T01:25:48.161Z,0.00
2018-12-15T01:26:48.153Z,0.00
2018-12-15T01:27:48.148Z,0.00
2018-12-15T01:28:48.140Z,0.00
2018-12-15T01:29:48.158Z,0.00
2018-12-15T01:30:48.126Z,0.00
2018-12-15T01:31:48.117Z,0.00
2018-12-15T01:32:48.109Z,0.00
2018-12-15T01:33:48.102Z,0.00
2018-12-15T01:34:48.121Z,0.00
2018-12-15T01:35:48.084Z,0.00
2018-12-15T01:36:48.080Z,0.00
2018-12-15T01:37:48.072Z,0.00
2018-12-15T01:38:48.060Z,0.00
2018-12-15T01:39:48.089Z,0.00
2018-12-15T01:40:48.048Z,0.00
2018-12-15T01:41:48.044Z,0.00
2018-12-15T01:42:48.027Z,0.00
2018-12-15T01:43:48.027Z,0.00
2018-12-15T01:44:48.048Z,0.00
2018-12-15T01:45:48.015Z,0.00
2018-12-15T01:46:48.008Z,0.00
2018-12-15T01:47:47.999Z,0.00
2018-12-15T01:48:47.991Z,0.00
2018-12-15T01:49:48.011Z,0.00
2018-12-15T01:50:47.974Z,0.00
2018-12-15T01:51:47.963Z,0.00
2018-12-15T01:52:47.969Z,0.00
2018-12-15T01:53:47.950Z,0.00
2018-12-15T01:54:47.974Z,0.00
2018-12-15T01:55:47.940Z,0.00
2018-12-15T01:56:47.934Z,0.00
2018-12-15T01:57:47.926Z,0.00
2018-12-15T01:58:47.918Z,0.00
2018-12-15T01:59:47.939Z,0.00
2018-12-15T02:00:47.902Z,0.00
2018-12-15T02:01:47.896Z,0.00
2018-12-15T02:02:47.892Z,0.00
2018-12-15T02:03:47.884Z,0.00
2018-12-15T02:04:47.901Z,0.00
2018-12-15T02:05:47.869Z,0.00
2018-12-15T02:06:47.854Z,0.00
2018-12-15T02:07:47.861Z,0.00
2018-12-15T02:08:47.841Z,0.00
2018-12-15T02:09:47.871Z,0.00
2018-12-15T02:10:47.831Z,0.00
2018-12-15T02:11:47.821Z,0.00
2018-12-15T02:12:47.814Z,0.00
2018-12-15T02:13:47.810Z,0.00
2018-12-15T02:14:47.831Z,0.00
2018-12-15T02:15:47.792Z,0.00
2018-12-15T02:16:47.785Z,0.00
2018-12-15T02:17:47.784Z,0.00
2018-12-15T02:18:47.772Z,0.00
2018-12-15T02:19:47.792Z,0.00
2018-12-15T02:20:47.749Z,0.00
2018-12-15T02:21:47.748Z,0.00
2018-12-15T02:22:47.742Z,0.00
2018-12-15T02:23:47.736Z,0.00
2018-12-15T02:24:47.758Z,0.00
2018-12-15T02:25:47.721Z,0.00
2018-12-15T02:26:47.712Z,0.00
2018-12-15T02:27:47.704Z,0.00
2018-12-15T02:28:47.727Z,0.00
2018-12-15T02:29:47.691Z,0.00
2018-12-15T02:30:47.793Z,0.00
2018-12-15T02:31:47.675Z,0.00
2018-12-15T02:32:47.660Z,0.00
2018-12-15T02:33:47.690Z,0.00
2018-12-15T02:34:47.648Z,0.00
2018-12-15T02:35:47.650Z,0.00
2018-12-15T02:36:47.675Z,0.00
2018-12-15T02:37:47.631Z,0.00
2018-12-15T02:38:47.618Z,0.00
2018-12-15T02:39:47.642Z,0.00
2018-12-15T02:40:47.607Z,0.00
2018-12-15T02:41:47.635Z,0.00
2018-12-15T02:42:47.594Z,0.00
2018-12-15T02:43:47.591Z,0.00
2018-12-15T02:44:47.606Z,0.00
2018-12-15T02:45:47.570Z,0.00
2018-12-15T02:46:47.561Z,0.00
2018-12-15T02:47:47.559Z,0.00
2018-12-15T02:48:47.551Z,0.00
2018-12-15T02:49:47.569Z,0.00
2018-12-15T02:50:47.535Z,0.00
2018-12-15T02:51:47.555Z,0.00
2018-12-15T02:52:47.526Z,0.00
2018-12-15T02:53:47.508Z,0.00
2018-12-15T02:54:47.529Z,0.00
2018-12-15T02:55:47.495Z,0.00
2018-12-15T02:56:47.489Z,0.00
2018-12-15T02:57:47.481Z,0.00
2018-12-15T02:58:47.530Z,0.00
2018-12-15T02:59:47.489Z,0.00
2018-12-15T03:00:47.452Z,0.00
2018-12-15T03:01:47.450Z,0.00
2018-12-15T03:02:47.445Z,0.00
2018-12-15T03:03:47.457Z,0.00
2018-12-15T03:04:47.453Z,0.00
2018-12-15T03:05:47.423Z,0.00
2018-12-15T03:06:47.413Z,0.00
2018-12-15T03:07:47.601Z,0.00
2018-12-15T03:08:47.402Z,0.00
2018-12-15T03:09:47.424Z,0.00
2018-12-15T03:10:47.383Z,0.00
2018-12-15T03:11:47.375Z,0.00
2018-12-15T03:12:47.370Z,0.00
2018-12-15T03:13:47.360Z,0.00
2018-12-15T03:14:47.394Z,0.00
2018-12-15T03:15:47.343Z,0.00
2018-12-15T03:16:47.335Z,0.00
2018-12-15T03:17:49.023Z,0.00
2018-12-15T03:18:47.323Z,0.00
2018-12-15T03:19:47.346Z,0.00
2018-12-15T03:20:47.310Z,0.00
2018-12-15T03:21:47.300Z,0.00
2018-12-15T03:22:47.293Z,0.00
2018-12-15T03:23:47.287Z,0.00
2018-12-15T03:24:47.314Z,0.00
2018-12-15T03:25:47.274Z,0.00
2018-12-15T03:26:47.261Z,0.00
2018-12-15T03:27:47.262Z,0.00
2018-12-15T03:28:47.306Z,0.00
2018-12-15T03:29:47.272Z,0.00
2018-12-15T03:30:47.230Z,0.00
2018-12-15T03:31:47.226Z,0.00
2018-12-15T03:32:47.230Z,0.00
2018-12-15T03:33:47.209Z,0.00
2018-12-15T03:34:47.230Z,0.00
2018-12-15T03:35:47.198Z,0.00
2018-12-15T03:36:47.196Z,0.00
2018-12-15T03:37:47.184Z,0.00
2018-12-15T03:38:47.177Z,0.00
2018-12-15T03:39:47.189Z,0.00
2018-12-15T03:40:47.162Z,0.00
2018-12-15T03:41:47.154Z,0.00
2018-12-15T03:42:47.144Z,0.00
2018-12-15T03:43:47.134Z,0.00
2018-12-15T03:44:47.157Z,0.00
2018-12-15T03:45:47.159Z,0.00
2018-12-15T03:46:47.113Z,0.00
2018-12-15T03:47:47.261Z,0.00
2018-12-15T03:48:47.100Z,0.00
2018-12-15T03:49:47.119Z,0.00
2018-12-15T03:50:47.087Z,0.00
2018-12-15T03:51:47.082Z,0.00
2018-12-15T03:52:47.065Z,0.00
2018-12-15T03:53:47.062Z,0.00
2018-12-15T03:54:47.082Z,0.00
2018-12-15T03:55:47.049Z,0.00
2018-12-15T03:56:47.042Z,0.00
2018-12-15T03:57:47.031Z,0.00
2018-12-15T03:58:47.027Z,0.00
2018-12-15T03:59:47.047Z,0.00
2018-12-15T04:00:47.007Z,0.00
2018-12-15T04:01:46.994Z,0.00
2018-12-15T04:02:46.995Z,0.00
2018-12-15T04:03:46.991Z,0.00
2018-12-15T04:04:47.006Z,0.00
2018-12-15T04:05:46.970Z,0.00
2018-12-15T04:06:46.962Z,0.00
2018-12-15T04:07:46.954Z,0.00
2018-12-15T04:08:46.947Z,0.00
2018-12-15T04:09:46.968Z,0.00
2018-12-15T04:10:46.933Z,0.00
2018-12-15T04:11:46.926Z,0.00
2018-12-15T04:12:46.918Z,0.00
2018-12-15T04:13:46.915Z,0.00
2018-12-15T04:14:46.930Z,0.00
2018-12-15T04:15:46.902Z,0.00
2018-12-15T04:16:46.889Z,0.00
2018-12-15T04:17:46.878Z,0.00
2018-12-15T04:18:46.874Z,0.00
2018-12-15T04:19:46.895Z,0.00
2018-12-15T04:20:46.862Z,0.00
2018-12-15T04:21:46.850Z,0.00
2018-12-15T04:22:46.840Z,0.00
2018-12-15T04:23:46.832Z,0.00
2018-12-15T04:24:46.859Z,0.00
2018-12-15T04:25:46.817Z,0.00
2018-12-15T04:26:46.814Z,0.00
2018-12-15T04:27:46.805Z,0.00
2018-12-15T04:28:46.826Z,0.00
2018-12-15T04:29:46.790Z,0.00
2018-12-15T04:30:46.813Z,0.00
2018-12-15T04:31:46.777Z,0.00
2018-12-15T04:32:46.769Z,0.00
2018-12-15T04:33:46.754Z,0.00
2018-12-15T04:34:46.756Z,0.00
2018-12-15T04:35:46.772Z,0.00
2018-12-15T04:36:46.733Z,0.00
2018-12-15T04:37:46.728Z,0.00
2018-12-15T04:38:46.714Z,0.00
2018-12-15T04:39:46.710Z,0.00
2018-12-15T04:40:46.747Z,0.00
2018-12-15T04:41:46.696Z,0.00
2018-12-15T04:42:46.706Z,0.00
2018-12-15T04:43:46.686Z,0.00
2018-12-15T04:44:46.677Z,0.00
2018-12-15T04:45:46.704Z,0.00
2018-12-15T04:46:46.660Z,0.00
2018-12-15T04:47:46.650Z,0.00
2018-12-15T04:48:46.645Z,0.00
2018-12-15T04:49:46.643Z,0.00
2018-12-15T04:50:46.657Z,0.00
2018-12-15T04:51:46.622Z,0.00
2018-12-15T04:52:46.614Z,0.00
2018-12-15T04:53:46.605Z,0.00
2018-12-15T04:54:46.599Z,0.00
2018-12-15T04:55:46.614Z,0.00
2018-12-15T04:56:46.583Z,0.00
2018-12-15T04:57:46.574Z,0.00
2018-12-15T04:58:46.565Z,0.00
2018-12-15T04:59:46.560Z,0.00
2018-12-15T05:00:46.584Z,0.00
2018-12-15T05:01:46.546Z,0.00
2018-12-15T05:02:46.539Z,0.00
2018-12-15T05:03:46.526Z,0.00
2018-12-15T05:04:47.110Z,0.00
2018-12-15T05:05:46.547Z,0.00
2018-12-15T05:06:46.506Z,0.00
2018-12-15T05:07:46.501Z,0.00
2018-12-15T05:08:46.491Z,0.00
2018-12-15T05:09:46.490Z,0.00
2018-12-15T05:10:46.504Z,0.00
2018-12-15T05:11:46.467Z,0.00
2018-12-15T05:12:46.464Z,0.00
2018-12-15T05:13:46.462Z,0.00
2018-12-15T05:14:46.479Z,0.00
2018-12-15T05:15:46.435Z,0.00
2018-12-15T05:16:46.426Z,0.00
2018-12-15T05:17:46.421Z,0.00
2018-12-15T05:18:46.417Z,0.00
2018-12-15T05:19:46.438Z,0.00
2018-12-15T05:20:46.399Z,0.00
2018-12-15T05:21:46.392Z,0.00
2018-12-15T05:22:46.382Z,0.00
2018-12-15T05:23:46.378Z,0.00
2018-12-15T05:24:46.397Z,0.00
2018-12-15T05:25:46.366Z,0.00
2018-12-15T05:26:46.354Z,0.00
2018-12-15T05:27:46.348Z,0.00
2018-12-15T05:28:46.345Z,0.00
2018-12-15T05:29:46.359Z,0.00
2018-12-15T05:30:46.323Z,0.00
2018-12-15T05:31:46.324Z,0.00
2018-12-15T05:32:46.309Z,0.00
2018-12-15T05:33:46.298Z,0.00
2018-12-15T05:34:46.321Z,0.00
2018-12-15T05:35:46.287Z,0.00
2018-12-15T05:36:46.278Z,0.00
2018-12-15T05:37:46.269Z,0.00
2018-12-15T05:38:46.261Z,0.00
2018-12-15T05:39:46.289Z,0.00
2018-12-15T05:40:46.245Z,0.00
2018-12-15T05:41:46.238Z,0.00
2018-12-15T05:42:46.228Z,0.00
2018-12-15T05:43:46.225Z,0.00
2018-12-15T05:44:46.392Z,0.00
2018-12-15T05:45:46.212Z,0.00
2018-12-15T05:46:46.201Z,0.00
2018-12-15T05:47:46.192Z,0.00
2018-12-15T05:48:46.181Z,0.00
2018-12-15T05:49:46.204Z,0.00
2018-12-15T05:50:46.195Z,0.00
2018-12-15T05:51:46.165Z,0.00
2018-12-15T05:52:46.156Z,0.00
2018-12-15T05:53:46.148Z,0.00
2018-12-15T05:54:46.169Z,0.00
2018-12-15T05:55:46.134Z,0.00
2018-12-15T05:56:46.128Z,0.00
2018-12-15T05:57:46.115Z,0.00
2018-12-15T05:58:46.109Z,0.00
2018-12-15T05:59:46.145Z,0.00
2018-12-15T06:00:46.099Z,0.00
2018-12-15T06:01:46.086Z,0.00
2018-12-15T06:02:46.079Z,0.00
2018-12-15T06:03:46.071Z,0.00
2018-12-15T06:04:46.093Z,0.00
2018-12-15T06:05:46.071Z,0.00
2018-12-15T06:06:46.054Z,0.00
2018-12-15T06:07:46.042Z,0.00
2018-12-15T06:08:46.062Z,0.00
2018-12-15T06:09:46.055Z,0.00
2018-12-15T06:10:46.020Z,0.00
2018-12-15T06:11:46.009Z,0.00
2018-12-15T06:12:45.998Z,0.00
2018-12-15T06:13:45.997Z,0.00
2018-12-15T06:14:46.014Z,0.00
2018-12-15T06:15:45.977Z,0.00
2018-12-15T06:16:45.978Z,0.00
2018-12-15T06:17:45.966Z,0.00
2018-12-15T06:18:45.983Z,0.00
2018-12-15T06:19:45.949Z,0.00
2018-12-15T06:20:45.944Z,0.00
2018-12-15T06:21:45.935Z,0.00
2018-12-15T06:22:45.928Z,0.00
2018-12-15T06:23:45.968Z,0.00
2018-12-15T06:24:45.959Z,0.00
2018-12-15T06:25:45.903Z,0.00
2018-12-15T06:26:45.897Z,0.00
2018-12-15T06:27:45.887Z,0.00
2018-12-15T06:28:45.883Z,0.00
2018-12-15T06:29:45.915Z,0.00
2018-12-15T06:30:45.865Z,0.00
2018-12-15T06:31:45.861Z,0.00
2018-12-15T06:32:45.852Z,0.00
2018-12-15T06:33:45.840Z,0.00
2018-12-15T06:34:45.859Z,0.00
2018-12-15T06:35:45.828Z,0.00
2018-12-15T06:36:45.820Z,0.00
2018-12-15T06:37:45.811Z,0.00
2018-12-15T06:38:45.833Z,0.00
2018-12-15T06:39:46.681Z,0.00
2018-12-15T06:40:45.791Z,0.00
2018-12-15T06:41:45.799Z,0.00
2018-12-15T06:42:45.773Z,0.00
2018-12-15T06:43:45.770Z,0.00
2018-12-15T06:44:45.791Z,0.00
2018-12-15T06:45:45.749Z,0.00
2018-12-15T06:46:45.744Z,0.00
2018-12-15T06:47:45.739Z,0.00
2018-12-15T06:48:45.728Z,0.00
2018-12-15T06:49:45.751Z,0.00
2018-12-15T06:50:45.715Z,0.00
2018-12-15T06:51:45.707Z,0.00
2018-12-15T06:52:45.698Z,0.00
2018-12-15T06:53:45.695Z,0.00
2018-12-15T06:54:45.709Z,0.00
2018-12-15T06:55:45.674Z,0.00
2018-12-15T06:56:45.670Z,0.00
2018-12-15T06:57:45.657Z,0.00
2018-12-15T06:58:45.652Z,0.00
2018-12-15T06:59:45.674Z,0.00
2018-12-15T07:00:45.705Z,0.00
2018-12-15T07:01:45.633Z,0.00
2018-12-15T07:02:45.623Z,0.00
2018-12-15T07:03:45.617Z,0.00
2018-12-15T07:04:45.663Z,0.00
2018-12-15T07:05:45.599Z,0.00
2018-12-15T07:06:45.594Z,0.00
2018-12-15T07:07:45.584Z,0.00
2018-12-15T07:08:45.605Z,0.00
2018-12-15T07:09:45.565Z,0.00
2018-12-15T07:10:45.560Z,0.00
2018-12-15T07:11:45.553Z,0.00
2018-12-15T07:12:45.549Z,0.00
2018-12-15T07:13:45.569Z,0.00
2018-12-15T07:14:45.561Z,0.00
2018-12-15T07:15:45.525Z,5.63
2018-12-15T07:16:45.515Z,5.63
2018-12-15T07:17:45.511Z,5.63
2018-12-15T07:18:45.499Z,5.63
2018-12-15T07:19:45.523Z,5.63
2018-12-15T07:20:45.491Z,5.63
2018-12-15T07:21:45.475Z,5.63
2018-12-15T07:22:45.470Z,5.63
2018-12-15T07:23:45.464Z,5.63
2018-12-15T07:24:45.482Z,5.63
2018-12-15T07:25:45.451Z,5.63
2018-12-15T07:26:45.438Z,5.63
2018-12-15T07:27:45.431Z,5.63
2018-12-15T07:28:45.424Z,5.63
2018-12-15T07:29:45.439Z,5.63
2018-12-15T07:30:45.414Z,5.63
2018-12-15T07:31:45.399Z,11.25
2018-12-15T07:32:45.395Z,11.25
2018-12-15T07:33:45.382Z,11.25
2018-12-15T07:34:45.405Z,11.25
2018-12-15T07:35:45.372Z,11.25
2018-12-15T07:36:45.366Z,11.25
2018-12-15T07:37:45.353Z,11.25
2018-12-15T07:38:45.345Z,11.25
2018-12-15T07:39:45.369Z,11.25
2018-12-15T07:40:45.361Z,16.88
2018-12-15T07:41:45.321Z,16.88
2018-12-15T07:42:45.312Z,16.88
2018-12-15T07:43:45.308Z,16.88
2018-12-15T07:44:45.298Z,16.88
2018-12-15T07:45:45.329Z,16.88
2018-12-15T07:46:45.284Z,22.50
2018-12-15T07:47:45.277Z,22.50
2018-12-15T07:48:51.204Z,28.13
2018-12-15T07:49:45.261Z,28.13
2018-12-15T07:50:45.353Z,28.13
2018-12-15T07:51:45.240Z,33.75
2018-12-15T07:52:45.247Z,33.75
2018-12-15T07:53:45.228Z,33.75
2018-12-15T07:54:45.224Z,33.75
2018-12-15T07:55:45.240Z,33.75
2018-12-15T07:56:45.208Z,33.75
2018-12-15T07:57:45.200Z,39.38
2018-12-15T07:58:45.191Z,39.38
2018-12-15T07:59:45.185Z,39.38
2018-12-15T08:00:45.205Z,39.38
2018-12-15T08:01:45.169Z,45.00
2018-12-15T08:02:45.156Z,45.00
2018-12-15T08:03:45.155Z,45.00
2018-12-15T08:04:45.142Z,45.00
2018-12-15T08:05:45.166Z,45.00
2018-12-15T08:06:45.131Z,45.00
2018-12-15T08:07:45.127Z,45.00
2018-12-15T08:08:45.111Z,50.63
2018-12-15T08:09:45.106Z,50.63
2018-12-15T08:10:45.130Z,50.63
2018-12-15T08:11:45.087Z,56.25
2018-12-15T08:12:45.085Z,56.25
2018-12-15T08:13:45.088Z,56.25
2018-12-15T08:14:45.069Z,61.88
2018-12-15T08:15:45.086Z,61.88
2018-12-15T08:16:45.057Z,61.88
2018-12-15T08:17:45.045Z,67.50
2018-12-15T08:18:45.037Z,67.50
2018-12-15T08:19:45.030Z,67.50
2018-12-15T08:20:45.058Z,73.13
2018-12-15T08:21:45.019Z,73.13
2018-12-15T08:22:45.002Z,73.13
2018-12-15T08:23:44.996Z,73.13
2018-12-15T08:24:44.991Z,78.75
2018-12-15T08:25:45.008Z,78.75
2018-12-15T08:26:44.972Z,84.38
2018-12-15T08:27:44.969Z,84.38
2018-12-15T08:28:44.960Z,84.38
2018-12-15T08:29:44.955Z,84.38
2018-12-15T08:30:44.972Z,84.38
2018-12-15T08:31:44.936Z,84.38
2018-12-15T08:32:45.565Z,90.00
2018-12-15T08:33:44.920Z,90.00
2018-12-15T08:34:44.912Z,90.00
2018-12-15T08:35:44.935Z,90.00
2018-12-15T08:36:44.901Z,90.00
2018-12-15T08:37:44.891Z,90.00
2018-12-15T08:38:44.884Z,90.00
2018-12-15T08:39:44.875Z,90.00
2018-12-15T08:40:44.898Z,90.00
2018-12-15T08:41:44.860Z,90.00
2018-12-15T08:42:44.854Z,90.00
2018-12-15T08:43:44.840Z,90.00
2018-12-15T08:44:44.840Z,90.00
2018-12-15T08:45:44.850Z,90.00
2018-12-15T08:46:44.820Z,90.00
2018-12-15T08:47:44.814Z,95.63
2018-12-15T08:48:44.806Z,95.63
2018-12-15T08:49:44.798Z,101.25
2018-12-15T08:50:44.819Z,101.25
2018-12-15T08:51:44.781Z,106.88
2018-12-15T08:52:44.778Z,112.50
2018-12-15T08:53:44.765Z,112.50
2018-12-15T08:54:44.764Z,112.50
2018-12-15T08:55:44.781Z,112.50
2018-12-15T08:56:44.750Z,112.50
2018-12-15T08:57:44.741Z,112.50
2018-12-15T08:58:44.730Z,112.50
2018-12-15T08:59:44.722Z,112.50
2018-12-15T09:00:44.747Z,112.50
2018-12-15T09:01:44.705Z,118.13
2018-12-15T09:02:44.700Z,118.13
2018-12-15T09:03:44.690Z,118.13
2018-12-15T09:04:44.684Z,118.13
2018-12-15T09:05:44.713Z,123.75
2018-12-15T09:06:44.669Z,123.75
2018-12-15T09:07:44.684Z,123.75
2018-12-15T09:08:44.665Z,123.75
2018-12-15T09:09:44.644Z,123.75
2018-12-15T09:10:44.686Z,123.75
2018-12-15T09:11:44.631Z,123.75
2018-12-15T09:12:44.624Z,123.75
2018-12-15T09:13:44.611Z,123.75
2018-12-15T09:14:44.608Z,129.38
2018-12-15T09:15:44.626Z,129.38
2018-12-15T09:16:44.599Z,129.38
2018-12-15T09:17:44.582Z,129.38
2018-12-15T09:18:44.575Z,129.38
2018-12-15T09:19:44.568Z,135.00
2018-12-15T09:20:44.592Z,135.00
2018-12-15T09:21:44.556Z,140.63
2018-12-15T09:22:44.546Z,140.63
2018-12-15T09:23:44.538Z,140.63
2018-12-15T09:24:44.532Z,140.63
2018-12-15T09:25:44.549Z,140.63
2018-12-15T09:26:44.514Z,146.25
2018-12-15T09:27:44.510Z,146.25
2018-12-15T09:28:44.501Z,146.25
2018-12-15T09:29:44.496Z,146.25
2018-12-15T09:30:44.514Z,146.25
2018-12-15T09:31:44.480Z,146.25
2018-12-15T09:32:44.470Z,151.88
2018-12-15T09:33:44.461Z,157.50
2018-12-15T09:34:44.454Z,157.50
2018-12-15T09:35:44.476Z,163.13
2018-12-15T09:36:44.443Z,168.75
2018-12-15T09:37:44.426Z,168.75
2018-12-15T09:38:44.426Z,168.75
2018-12-15T09:39:44.444Z,168.75
2018-12-15T09:40:44.413Z,168.75
2018-12-15T09:41:44.398Z,174.38
2018-12-15T09:42:44.399Z,174.38
2018-12-15T09:43:44.387Z,174.38
2018-12-15T09:44:44.413Z,174.38
2018-12-15T09:45:44.379Z,180.00
2018-12-15T09:46:44.363Z,185.63
2018-12-15T09:47:44.355Z,185.63
2018-12-15T09:48:44.353Z,191.25
2018-12-15T09:49:44.374Z,191.25
2018-12-15T09:50:44.338Z,191.25
2018-12-15T09:51:44.328Z,191.25
2018-12-15T09:52:44.318Z,196.88
2018-12-15T09:53:44.311Z,191.25
2018-12-15T09:54:44.339Z,191.25
2018-12-15T09:55:44.293Z,185.63
2018-12-15T09:56:44.285Z,185.63
2018-12-15T09:57:44.283Z,180.00
2018-12-15T09:58:44.278Z,180.00
2018-12-15T09:59:44.310Z,174.38
2018-12-15T10:00:44.259Z,168.75
2018-12-15T10:01:44.249Z,168.75
2018-12-15T10:02:44.246Z,163.13
2018-12-15T10:03:44.237Z,163.13
2018-12-15T10:04:44.256Z,163.13
2018-12-15T10:05:44.237Z,168.75
2018-12-15T10:06:44.212Z,168.75
2018-12-15T10:07:44.203Z,174.38
2018-12-15T10:08:44.206Z,174.38
2018-12-15T10:09:44.215Z,180.00
2018-12-15T10:10:44.185Z,180.00
2018-12-15T10:11:44.176Z,180.00
2018-12-15T10:12:44.168Z,174.38
2018-12-15T10:13:44.162Z,168.75
2018-12-15T10:14:44.183Z,168.75
2018-12-15T10:15:44.148Z,168.75
2018-12-15T10:16:44.139Z,168.75
2018-12-15T10:17:44.125Z,168.75
2018-12-15T10:18:44.119Z,168.75
2018-12-15T10:19:44.145Z,168.75
2018-12-15T10:20:44.105Z,174.38
2018-12-15T10:21:44.099Z,174.38
2018-12-15T10:22:44.090Z,174.38
2018-12-15T10:23:44.087Z,174.38
2018-12-15T10:24:44.103Z,174.38
2018-12-15T10:25:44.070Z,168.75
2018-12-15T10:26:44.062Z,163.13
2018-12-15T10:27:44.052Z,163.13
2018-12-15T10:28:44.050Z,163.13
2018-12-15T10:29:44.070Z,163.13
2018-12-15T10:30:44.035Z,168.75
2018-12-15T10:31:44.025Z,180.00
2018-12-15T10:32:44.018Z,196.88
2018-12-15T10:33:44.006Z,202.50
2018-12-15T10:34:44.030Z,208.13
2018-12-15T10:35:43.995Z,213.75
2018-12-15T10:36:43.991Z,219.38
2018-12-15T10:37:43.979Z,219.38
2018-12-15T10:38:43.973Z,213.75
2018-12-15T10:39:43.995Z,208.13
2018-12-15T10:40:43.961Z,208.13
2018-12-15T10:41:43.953Z,202.50
2018-12-15T10:42:43.945Z,196.88
2018-12-15T10:43:43.939Z,196.88
2018-12-15T10:44:43.957Z,196.88
2018-12-15T10:45:43.917Z,191.25
2018-12-15T10:46:43.912Z,191.25
2018-12-15T10:47:43.910Z,185.63
2018-12-15T10:48:43.897Z,185.63
2018-12-15T10:49:43.920Z,185.63
2018-12-15T10:50:43.885Z,185.63
2018-12-15T10:51:43.868Z,191.25
2018-12-15T10:52:43.872Z,191.25
2018-12-15T10:53:43.864Z,191.25
2018-12-15T10:54:43.883Z,196.88
2018-12-15T10:55:43.850Z,196.88
2018-12-15T10:56:43.947Z,202.50
2018-12-15T10:57:43.837Z,208.13
2018-12-15T10:58:43.827Z,213.75
2018-12-15T10:59:43.847Z,219.38
2018-12-15T11:00:43.811Z,225.00
2018-12-15T11:01:43.804Z,230.63
2018-12-15T11:02:43.802Z,230.63
2018-12-15T11:03:43.790Z,241.88
2018-12-15T11:04:43.813Z,241.88
2018-12-15T11:05:44.600Z,241.88
2018-12-15T11:06:43.764Z,236.25
2018-12-15T11:07:43.764Z,230.63
2018-12-15T11:08:43.755Z,230.63
2018-12-15T11:09:43.775Z,230.63
2018-12-15T11:10:43.738Z,230.63
2018-12-15T11:11:43.731Z,230.63
2018-12-15T11:12:43.723Z,230.63
2018-12-15T11:13:43.714Z,236.25
2018-12-15T11:14:43.733Z,241.88
2018-12-15T11:15:43.853Z,247.50
2018-12-15T11:16:43.694Z,253.13
2018-12-15T11:17:43.691Z,253.13
2018-12-15T11:18:43.686Z,258.75
2018-12-15T11:19:43.698Z,275.63
2018-12-15T11:20:43.831Z,286.88
2018-12-15T11:21:43.657Z,303.75
2018-12-15T11:22:43.649Z,320.63
2018-12-15T11:23:44.600Z,331.88
2018-12-15T11:24:43.660Z,337.50
2018-12-15T11:25:43.627Z,337.50
2018-12-15T11:26:44.536Z,337.50
2018-12-15T11:27:43.615Z,337.50
2018-12-15T11:28:43.608Z,331.88
2018-12-15T11:29:43.624Z,326.25
2018-12-15T11:30:43.715Z,320.63
2018-12-15T11:31:43.581Z,309.38
2018-12-15T11:32:43.576Z,309.38
2018-12-15T11:33:43.565Z,315.00
2018-12-15T11:34:43.588Z,315.00
2018-12-15T11:35:43.555Z,315.00
2018-12-15T11:36:43.548Z,320.63
2018-12-15T11:37:43.540Z,326.25
2018-12-15T11:38:43.531Z,326.25
2018-12-15T11:39:43.551Z,320.63
2018-12-15T11:40:43.520Z,315.00
2018-12-15T11:41:43.511Z,309.38
2018-12-15T11:42:43.500Z,298.13
2018-12-15T11:43:43.497Z,292.50
2018-12-15T11:44:43.540Z,286.88
2018-12-15T11:45:43.479Z,281.25
2018-12-15T11:46:43.475Z,270.00
2018-12-15T11:47:43.466Z,264.38
2018-12-15T11:48:43.455Z,264.38
2018-12-15T11:49:43.801Z,264.38
2018-12-15T11:50:43.443Z,264.38
2018-12-15T11:51:43.438Z,264.38
2018-12-15T11:52:43.430Z,258.75
2018-12-15T11:53:43.422Z,258.75
2018-12-15T11:54:43.443Z,258.75
2018-12-15T11:55:44.623Z,258.75
2018-12-15T11:56:43.406Z,258.75
2018-12-15T11:57:43.394Z,258.75
2018-12-15T11:58:43.388Z,253.13
2018-12-15T11:59:43.410Z,247.50
2018-12-15T12:00:43.374Z,241.88
2018-12-15T12:01:43.366Z,236.25
2018-12-15T12:02:43.361Z,225.00
2018-12-15T12:03:43.497Z,213.75
2018-12-15T12:04:43.371Z,202.50
2018-12-15T12:05:43.334Z,202.50
2018-12-15T12:06:43.334Z,196.88
2018-12-15T12:07:43.319Z,196.88
2018-12-15T12:08:43.317Z,196.88
2018-12-15T12:09:43.338Z,196.88
2018-12-15T12:10:43.301Z,196.88
2018-12-15T12:11:43.296Z,196.88
2018-12-15T12:12:43.286Z,196.88
2018-12-15T12:13:43.277Z,191.25
2018-12-15T12:14:43.296Z,191.25
2018-12-15T12:15:43.269Z,185.63
2018-12-15T12:16:43.264Z,174.38
2018-12-15T12:17:43.250Z,168.75
2018-12-15T12:18:43.236Z,168.75
2018-12-15T12:19:43.261Z,174.38
2018-12-15T12:20:43.227Z,174.38
2018-12-15T12:21:43.219Z,180.00
2018-12-15T12:22:43.209Z,180.00
2018-12-15T12:23:43.203Z,180.00
2018-12-15T12:24:43.231Z,174.38
2018-12-15T12:25:43.191Z,174.38
2018-12-15T12:26:43.183Z,174.38
2018-12-15T12:27:43.176Z,168.75
2018-12-15T12:28:43.169Z,163.13
2018-12-15T12:29:43.186Z,157.50
2018-12-15T12:30:43.154Z,151.88
2018-12-15T12:31:43.151Z,146.25
2018-12-15T12:32:43.141Z,146.25
2018-12-15T12:33:43.130Z,146.25
2018-12-15T12:34:43.152Z,146.25
2018-12-15T12:35:43.110Z,151.88
2018-12-15T12:36:43.111Z,151.88
2018-12-15T12:37:43.100Z,157.50
2018-12-15T12:38:43.095Z,163.13
2018-12-15T12:39:43.114Z,163.13
2018-12-15T12:40:43.077Z,163.13
2018-12-15T12:41:43.071Z,174.38
2018-12-15T12:42:43.066Z,196.88
2018-12-15T12:43:43.060Z,219.38
2018-12-15T12:44:43.082Z,241.88
2018-12-15T12:45:43.044Z,258.75
2018-12-15T12:46:43.034Z,270.00
2018-12-15T12:47:43.029Z,275.63
2018-12-15T12:48:43.020Z,281.25
2018-12-15T12:49:43.042Z,292.50
2018-12-15T12:50:43.000Z,303.75
2018-12-15T12:51:42.997Z,309.38
2018-12-15T12:52:42.988Z,315.00
2018-12-15T12:53:42.981Z,320.63
2018-12-15T12:54:43.002Z,320.63
2018-12-15T12:55:42.975Z,320.63
2018-12-15T12:56:42.960Z,320.63
2018-12-15T12:57:42.951Z,320.63
2018-12-15T12:58:42.946Z,315.00
2018-12-15T12:59:42.968Z,309.38